Time;durP1;ratioP1;P1;durP2;ratioP2;P2;SDS_P1;SDS_P2;PMS_P1;PMS_P2;Temp;Humidity;BMP_temperature;BMP_pressure;BME280_temperature;BME280_humidity;BME280_pressure;Samples;Min_cycle;Max_cycle;Signal;HPM_P1;HPM_P2
2022/01/12 00:01:56;;;;;;;23.00;12.50;;;;;;;-3.01;80.51;102552.55;84584;1330;22593;-71
2022/01/12 00:04:05;;;;;;;23.90;11.90;;;;;;;-3.02;80.61;102553.01;84561;1330;22594;-71
2022/01/12 00:06:18;;;;;;;22.50;12.90;;;;;;;-3.02;80.52;102554.21;84577;1333;24077;-71
2022/01/12 00:08:27;;;;;;;23.90;14.30;;;;;;;-3.03;80.52;102547.85;84549;1329;24240;-72
2022/01/12 00:10:40;;;;;;;19.00;10.90;;;;;;;-3.05;80.52;102549.63;84558;1327;22584;-70
2022/01/12 00:12:52;;;;;;;22.80;12.70;;;;;;;-3.08;80.54;102550.84;84570;1330;22640;-71
2022/01/12 00:15:01;;;;;;;22.60;13.00;;;;;;;-3.12;80.76;102554.41;84570;1330;22594;-71
2022/01/12 00:17:13;;;;;;;26.40;14.30;;;;;;;-3.12;80.71;102553.86;84563;1330;25468;-71
2022/01/12 00:19:26;;;;;;;25.80;13.90;;;;;;;-3.12;80.63;102545.52;84560;1334;22888;-77
2022/01/12 00:21:38;;;;;;;26.50;14.90;;;;;;;-3.11;80.89;102547.93;84609;1330;22865;-77
2022/01/12 00:23:47;;;;;;;31.20;17.50;;;;;;;-3.09;80.78;102549.91;84592;1330;23854;-76
2022/01/12 00:26:03;;;;;;;34.80;20.80;;;;;;;-3.07;80.80;102550.37;84547;1333;22875;-78
2022/01/12 00:33:13;;;;;;;29.00;15.50;;;;;;;-3.04;80.88;102556.16;84555;1330;24215;-70
2022/01/12 00:35:25;;;;;;;29.00;15.80;;;;;;;-3.03;80.87;102554.66;84567;1331;22596;-71
2022/01/12 00:37:37;;;;;;;30.90;17.70;;;;;;;-3.03;81.04;102553.29;84564;1330;22693;-71
2022/01/12 00:39:46;;;;;;;42.80;20.60;;;;;;;-3.05;81.01;102557.11;83849;1330;1003005;-70
2022/01/12 00:41:57;;;;;;;45.40;22.80;;;;;;;-3.08;80.94;102557.16;84548;1332;22595;-77
2022/01/12 00:44:09;;;;;;;39.10;21.00;;;;;;;-3.10;80.78;102552.77;84568;1330;23859;-77
2022/01/12 00:46:18;;;;;;;38.10;21.10;;;;;;;-3.08;80.92;102550.27;84549;1324;22746;-76
2022/01/12 00:48:27;;;;;;;41.30;21.20;;;;;;;-3.09;80.89;102547.86;84600;1331;22622;-76
2022/01/12 00:50:39;;;;;;;45.20;22.50;;;;;;;-3.09;80.90;102551.30;84544;1330;22622;-76
2022/01/12 00:52:50;;;;;;;46.80;24.40;;;;;;;-3.07;80.86;102546.43;84574;1330;24240;-78
2022/01/12 00:54:59;;;;;;;50.90;25.00;;;;;;;-3.05;80.99;102548.23;84576;1331;23774;-77
2022/01/12 00:57:09;;;;;;;45.80;25.30;;;;;;;-3.04;80.95;102550.33;84594;1324;22869;-71
2022/01/12 00:59:18;;;;;;;53.70;23.90;;;;;;;-3.03;81.02;102550.75;84531;1333;22921;-71
2022/01/12 01:01:27;;;;;;;50.80;24.70;;;;;;;-3.03;81.06;102549.88;84589;1329;25303;-71
2022/01/12 01:03:36;;;;;;;50.70;26.30;;;;;;;-3.04;81.11;102548.15;84552;1324;22657;-70
2022/01/12 01:05:45;;;;;;;57.10;28.70;;;;;;;-3.03;81.13;102546.64;83851;1330;1003392;-71
2022/01/12 01:07:55;;;;;;;57.40;28.20;;;;;;;-3.01;81.18;102551.20;84573;1328;22678;-78
2022/01/12 01:10:06;;;;;;;56.10;28.50;;;;;;;-3.00;81.22;102550.41;84570;1332;22643;-77
2022/01/12 01:12:15;;;;;;;55.30;28.60;;;;;;;-3.02;81.08;102550.77;84581;1333;23854;-70
2022/01/12 01:14:36;;;;;;;56.10;26.40;;;;;;;-3.05;80.95;102549.25;84565;1335;22618;-70
2022/01/12 01:16:53;;;;;;;62.30;29.20;;;;;;;-3.07;81.12;102546.78;84565;1331;23962;-70
2022/01/12 01:26:22;;;;;;;66.50;28.40;;;;;;;-3.04;81.13;102544.21;84581;1333;22757;-73
2022/01/12 01:28:31;;;;;;;58.30;27.90;;;;;;;-3.01;81.22;102540.11;84584;1332;22624;-70
2022/01/12 01:30:41;;;;;;;59.90;29.10;;;;;;;-2.98;81.32;102544.35;84589;1333;22703;-70
2022/01/12 01:32:49;;;;;;;55.80;28.70;;;;;;;-2.99;81.21;102545.30;84599;1330;24263;-69
2022/01/12 01:34:58;;;;;;;66.00;30.50;;;;;;;-3.02;81.06;102542.61;84542;1331;23960;-70
2022/01/12 01:37:07;;;;;;;56.40;27.40;;;;;;;-3.03;81.11;102542.37;84563;1330;22594;-71
2022/01/12 01:39:19;;;;;;;65.40;29.10;;;;;;;-3.06;81.18;102543.56;84570;1333;22766;-71
2022/01/12 01:41:28;;;;;;;57.00;26.90;;;;;;;-3.07;81.13;102543.34;83870;1326;1003130;-71
2022/01/12 01:43:57;;;;;;;53.10;26.50;;;;;;;-3.09;81.11;102542.73;84548;1333;24094;-71
2022/01/12 01:53:27;;;;;;;63.00;28.90;;;;;;;-3.10;81.16;102545.24;84572;1330;24212;-71
2022/01/12 01:55:37;;;;;;;65.10;32.30;;;;;;;-3.11;81.04;102547.10;84568;1330;22833;-71
2022/01/12 01:57:46;;;;;;;65.80;32.80;;;;;;;-3.11;81.18;102543.86;84575;1331;22625;-77
2022/01/12 01:59:55;;;;;;;63.30;30.50;;;;;;;-3.13;81.13;102541.02;83858;1333;1003142;-77
2022/01/12 02:02:04;;;;;;;63.20;27.70;;;;;;;-3.14;81.20;102540.47;84566;1333;22624;-77
2022/01/12 02:04:13;;;;;;;64.20;30.10;;;;;;;-3.15;81.23;102538.84;84571;1331;22802;-77
2022/01/12 02:06:22;;;;;;;58.50;28.90;;;;;;;-3.17;81.27;102534.80;84611;1335;22606;-70
2022/01/12 02:08:52;;;;;;;56.50;27.50;;;;;;;-3.22;81.25;102540.56;84572;1331;22593;-70
2022/01/12 02:11:08;;;;;;;56.90;28.70;;;;;;;-3.24;81.34;102548.80;84555;1328;23910;-71
2022/01/12 02:13:37;;;;;;;57.20;27.90;;;;;;;-3.23;81.26;102549.89;84541;1330;22697;-71
2022/01/12 02:15:47;;;;;;;54.50;24.40;;;;;;;-3.24;81.27;102540.44;84572;1327;22776;-70
2022/01/12 02:18:07;;;;;;;52.20;26.50;;;;;;;-3.22;81.27;102533.34;84495;1328;22643;-76
2022/01/12 02:35:06;;;;;;;53.50;26.10;;;;;;;-3.22;81.35;102540.68;84558;1330;23856;-77
2022/01/12 02:35:36;;;;;;;52.70;24.70;;;;;;;-3.34;81.48;102540.04;84569;1332;22634;-75
2022/01/12 02:40:17;;;;;;;57.50;26.30;;;;;;;-3.33;81.47;102535.52;84550;1332;24306;-70
2022/01/12 02:42:29;;;;;;;65.40;30.90;;;;;;;-3.32;81.51;102535.23;84491;1329;22614;-76
2022/01/12 02:54:34;;;;;;;55.40;28.60;;;;;;;-3.27;81.57;102528.34;84546;1330;24303;-75
2022/01/12 02:56:43;;;;;;;60.10;26.80;;;;;;;-3.30;81.72;102527.98;84542;1332;22638;-75
2022/01/12 02:58:58;;;;;;;54.20;27.10;;;;;;;-3.31;81.62;102524.00;84512;1332;22891;-76
2022/01/12 03:03:37;;;;;;;52.50;24.30;;;;;;;-3.36;81.57;102530.73;84196;1335;359762;-76
2022/01/12 03:05:57;;;;;;;51.70;24.20;;;;;;;-3.40;81.70;102530.53;84561;1330;22638;-76
2022/01/12 03:08:15;;;;;;;48.70;24.00;;;;;;;-3.42;81.67;102530.27;84506;1331;22639;-77
2022/01/12 03:10:25;;;;;;;45.90;23.60;;;;;;;-3.41;81.72;102530.61;84544;1331;23851;-77
2022/01/12 03:12:34;;;;;;;50.70;24.70;;;;;;;-3.41;81.87;102531.71;84584;1333;22623;-70
2022/01/12 03:14:43;;;;;;;51.00;26.40;;;;;;;-3.41;81.95;102536.11;84543;1330;22574;-71
2022/01/12 03:16:52;;;;;;;47.80;24.80;;;;;;;-3.41;81.96;102536.27;84585;1331;22591;-72
2022/01/12 03:19:02;;;;;;;50.90;24.70;;;;;;;-3.43;81.90;102541.10;84562;1331;22806;-71
2022/01/12 03:21:11;;;;;;;51.50;24.60;;;;;;;-3.44;81.96;102544.14;84533;1332;22606;-72
2022/01/12 03:23:20;;;;;;;58.40;29.30;;;;;;;-3.47;81.99;102544.84;84538;1330;22596;-72
2022/01/12 03:25:29;;;;;;;53.40;27.20;;;;;;;-3.49;82.00;102545.73;84562;1332;22622;-72
2022/01/12 03:27:39;;;;;;;52.80;26.40;;;;;;;-3.49;82.06;102544.06;84555;1330;24139;-72
2022/01/12 03:29:54;;;;;;;47.90;24.20;;;;;;;-3.47;82.13;102539.70;84542;1330;24406;-73
2022/01/12 03:32:05;;;;;;;48.30;26.60;;;;;;;-3.45;82.11;102541.52;84557;1327;22881;-73
2022/01/12 03:34:25;;;;;;;44.40;24.10;;;;;;;-3.44;82.03;102542.80;84550;1330;22613;-70
2022/01/12 04:08:46;;;;;;;47.80;21.70;;;;;;;-3.71;82.61;102530.75;84552;1329;25377;-71
2022/01/12 04:11:00;;;;;;;47.00;23.10;;;;;;;-3.69;82.78;102529.17;84545;1330;22615;-71
2022/01/12 04:13:09;;;;;;;42.80;22.50;;;;;;;-3.69;82.64;102529.63;84532;1329;23927;-79
2022/01/12 04:15:18;;;;;;;47.90;24.80;;;;;;;-3.74;82.67;102530.73;84526;1333;24381;-79
2022/01/12 04:17:30;;;;;;;46.10;23.70;;;;;;;-3.78;82.66;102532.86;84550;1329;23061;-78
2022/01/12 04:19:39;;;;;;;54.00;25.20;;;;;;;-3.85;82.74;102535.77;83846;1331;1003348;-77
2022/01/12 04:21:49;;;;;;;50.80;25.40;;;;;;;-3.93;82.61;102538.55;84562;1330;24302;-71
2022/01/12 04:24:02;;;;;;;46.90;25.40;;;;;;;-4.01;82.63;102539.63;84529;1329;23091;-70
2022/01/12 04:26:13;;;;;;;48.80;24.40;;;;;;;-4.10;82.59;102536.41;84515;1331;22637;-71
2022/01/12 04:28:26;;;;;;;55.70;24.90;;;;;;;-4.16;82.74;102537.26;84550;1330;22856;-70
2022/01/12 04:30:35;;;;;;;54.40;24.40;;;;;;;-4.19;82.77;102537.30;84564;1333;25295;-72
2022/01/12 04:32:44;;;;;;;57.50;25.10;;;;;;;-4.19;82.94;102534.23;84554;1330;22620;-78
2022/01/12 04:34:56;;;;;;;56.60;27.60;;;;;;;-4.17;82.91;102530.06;84524;1331;22637;-78
2022/01/12 04:37:08;;;;;;;54.40;27.80;;;;;;;-4.13;83.20;102530.10;84568;1330;23485;-75
2022/01/12 04:39:17;;;;;;;54.20;26.80;;;;;;;-4.10;83.10;102530.93;84531;1329;24140;-76
2022/01/12 04:41:29;;;;;;;59.70;27.70;;;;;;;-4.10;83.30;102529.23;83886;1330;1003252;-75
2022/01/12 04:43:39;;;;;;;63.00;27.30;;;;;;;-4.08;83.30;102531.57;84543;1330;22607;-78
2022/01/12 04:46:10;;;;;;;65.70;31.40;;;;;;;-4.08;83.35;102533.81;84536;1330;26531;-77
2022/01/12 04:48:34;;;;;;;56.50;28.70;;;;;;;-4.09;83.41;102530.66;84515;1330;22594;-76
2022/01/12 04:50:47;;;;;;;61.80;27.90;;;;;;;-4.10;83.35;102529.43;84540;1327;22800;-76
2022/01/12 04:52:59;;;;;;;64.70;30.20;;;;;;;-4.10;83.40;102525.49;84549;1330;24398;-76
2022/01/12 04:55:09;;;;;;;60.10;28.20;;;;;;;-4.09;83.30;102526.39;84562;1329;25446;-76
2022/01/12 04:57:16;;;;;;;;;;;;;;;-4.07;83.43;102528.08;84556;1332;22607;-76
2022/01/12 04:59:29;;;;;;;59.40;28.30;;;;;;;-4.06;83.44;102522.64;84554;1330;24255;-76
2022/01/12 05:01:49;;;;;;;56.80;28.60;;;;;;;-4.00;83.54;102522.13;84537;1330;25437;-70
2022/01/12 05:09:11;;;;;;;61.50;28.00;;;;;;;-3.96;83.60;102525.94;84565;1333;23905;-70
2022/01/12 05:13:52;;;;;;;61.90;33.00;;;;;;;-4.01;83.53;102527.73;84549;1330;23053;-70
2022/01/12 05:16:02;;;;;;;62.60;30.50;;;;;;;-3.99;83.66;102528.45;84562;1331;25454;-71
2022/01/12 05:18:11;;;;;;;68.30;32.30;;;;;;;-4.02;83.66;102525.97;84547;1330;22604;-70
2022/01/12 05:20:23;;;;;;;62.90;30.60;;;;;;;-4.02;83.58;102523.20;84551;1329;22607;-70
2022/01/12 05:22:35;;;;;;;63.40;32.00;;;;;;;-4.02;83.66;102525.11;84534;1330;22847;-71
2022/01/12 05:24:44;;;;;;;65.40;31.00;;;;;;;-4.00;83.61;102526.38;84555;1330;22881;-72
2022/01/12 05:26:52;;;;;;;70.60;35.00;;;;;;;-3.97;83.71;102528.98;84572;1324;22632;-71
2022/01/12 05:29:04;;;;;;;64.30;32.30;;;;;;;-3.92;83.72;102528.56;84552;1330;22603;-70
2022/01/12 05:31:15;;;;;;;68.50;34.80;;;;;;;-3.89;83.81;102525.48;84557;1329;22615;-74
2022/01/12 05:33:25;;;;;;;66.20;34.80;;;;;;;-3.88;83.70;102522.10;84502;1335;22604;-75
2022/01/12 05:35:34;;;;;;;70.20;33.20;;;;;;;-3.89;83.70;102524.79;84514;1331;23950;-76
2022/01/12 05:37:44;;;;;;;65.90;35.00;;;;;;;-3.90;83.87;102520.13;84551;1330;22597;-71
2022/01/12 05:39:51;;;;;;;;;;;;;;;-3.89;83.74;102516.10;84556;1330;22594;-69
2022/01/12 05:42:03;;;;;;;76.50;34.80;;;;;;;-3.93;83.80;102515.88;84565;1332;22624;-79
2022/01/12 05:44:15;;;;;;;77.00;34.60;;;;;;;-3.95;83.85;102514.57;84542;1332;22629;-77
2022/01/12 05:46:26;;;;;;;74.20;33.20;;;;;;;-3.95;83.96;102513.19;84561;1327;25131;-72
2022/01/12 05:51:04;;;;;;;70.50;32.50;;;;;;;-3.94;83.68;102508.66;84539;1332;22617;-72
2022/01/12 05:53:13;;;;;;;67.00;34.50;;;;;;;-3.92;83.80;102512.02;84527;1335;22625;-67
2022/01/12 05:55:27;;;;;;;72.40;33.50;;;;;;;-3.90;83.90;102513.80;84558;1330;24154;-70
2022/01/12 05:57:36;;;;;;;76.30;37.10;;;;;;;-3.88;83.96;102521.45;84544;1330;25460;-71
2022/01/12 05:59:44;;;;;;;76.40;35.50;;;;;;;-3.86;83.84;102514.73;84508;1327;22794;-73
2022/01/12 06:01:53;;;;;;;76.70;34.40;;;;;;;-3.86;83.91;102519.67;84522;1331;22618;-73
2022/01/12 06:04:02;;;;;;;80.10;36.10;;;;;;;-3.85;83.98;102523.27;84536;1333;22829;-73
2022/01/12 06:06:15;;;;;;;58.00;30.60;;;;;;;-3.83;84.08;102518.64;83832;1331;1003043;-77
2022/01/12 06:08:23;;;;;;;82.30;37.50;;;;;;;-3.83;84.09;102518.45;84547;1331;22672;-75
2022/01/12 06:10:35;;;;;;;76.70;35.60;;;;;;;-3.85;84.12;102520.74;84552;1333;22606;-77
2022/01/12 06:12:47;;;;;;;73.00;36.70;;;;;;;-3.84;84.03;102522.52;84571;1329;22619;-72
2022/01/12 06:14:55;;;;;;;69.30;34.00;;;;;;;-3.81;84.08;102527.10;84524;1330;24399;-72
2022/01/12 06:17:07;;;;;;;81.50;34.80;;;;;;;-3.80;84.21;102533.14;84539;1331;25437;-76
2022/01/12 06:19:18;;;;;;;68.60;31.10;;;;;;;-3.77;84.07;102528.34;84461;1333;22620;-76
2022/01/12 06:21:27;;;;;;;64.80;33.10;;;;;;;-3.74;84.11;102527.34;84578;1332;24194;-77
2022/01/12 06:23:37;;;;;;;67.20;32.60;;;;;;;-3.72;84.20;102522.48;84541;1326;22694;-76
2022/01/12 06:25:46;;;;;;;72.00;33.40;;;;;;;-3.72;84.14;102527.45;84506;1331;22584;-75
2022/01/12 06:28:09;;;;;;;73.90;34.20;;;;;;;-3.71;84.08;102531.27;84572;1332;24241;-72
2022/01/12 06:32:45;;;;;;;74.10;34.50;;;;;;;-3.70;84.20;102536.73;84532;1332;25453;-73
2022/01/12 06:34:54;;;;;;;78.50;34.90;;;;;;;-3.71;84.17;102540.98;84543;1335;22613;-71
2022/01/12 06:37:06;;;;;;;71.90;32.40;;;;;;;-3.71;84.16;102539.44;84508;1330;24293;-77
2022/01/12 06:39:20;;;;;;;68.50;33.40;;;;;;;-3.68;84.20;102532.93;84523;1331;25454;-71
2022/01/12 06:41:46;;;;;;;66.70;30.70;;;;;;;-3.66;84.09;102532.20;84581;1332;22605;-71
2022/01/12 06:44:01;;;;;;;67.80;32.50;;;;;;;-3.61;84.13;102534.34;84573;1333;22645;-71
2022/01/12 06:46:14;;;;;;;66.40;31.90;;;;;;;-3.57;84.21;102538.66;84565;1333;24397;-76
2022/01/12 06:48:23;;;;;;;67.00;32.40;;;;;;;-3.53;84.09;102534.93;83854;1324;1003411;-77
2022/01/12 06:50:35;;;;;;;67.30;32.10;;;;;;;-3.50;84.00;102537.13;84548;1331;22604;-77
2022/01/12 06:52:48;;;;;;;65.80;30.30;;;;;;;-3.50;83.87;102539.91;84550;1333;24255;-77
2022/01/12 06:54:57;;;;;;;60.80;32.30;;;;;;;-3.48;83.73;102549.37;84553;1330;25961;-77
2022/01/12 06:57:06;;;;;;;65.00;33.00;;;;;;;-3.48;83.75;102551.42;84562;1331;22891;-72
2022/01/12 06:59:19;;;;;;;68.90;34.20;;;;;;;-3.49;83.71;102550.52;84543;1333;22615;-74
2022/01/12 07:01:27;;;;;;;64.70;30.90;;;;;;;-3.51;83.57;102549.90;84552;1330;25464;-74
2022/01/12 07:03:36;;;;;;;66.20;33.00;;;;;;;-3.52;83.54;102550.19;84533;1331;22614;-73
2022/01/12 07:05:46;;;;;;;62.40;30.00;;;;;;;-3.51;83.57;102555.70;84500;1332;22724;-73
2022/01/12 07:07:55;;;;;;;61.80;31.30;;;;;;;-3.47;83.44;102554.53;84530;1331;22628;-77
2022/01/12 07:10:04;;;;;;;59.00;27.70;;;;;;;-3.45;83.32;102556.70;84513;1333;22893;-76
2022/01/12 07:12:16;;;;;;;53.00;26.50;;;;;;;-3.43;83.06;102551.53;84551;1332;22611;-72
2022/01/12 07:14:25;;;;;;;51.70;26.80;;;;;;;-3.40;83.05;102547.74;84554;1327;22604;-73
2022/01/12 07:16:37;;;;;;;54.40;28.00;;;;;;;-3.36;83.14;102550.35;84512;1333;23732;-75
2022/01/12 07:18:46;;;;;;;50.50;25.90;;;;;;;-3.31;83.23;102555.75;84538;1333;23855;-75
2022/01/12 07:21:00;;;;;;;48.30;24.70;;;;;;;-3.28;83.13;102557.63;84552;1333;22741;-77
2022/01/12 07:23:09;;;;;;;50.90;26.40;;;;;;;-3.25;83.17;102558.95;84565;1331;22654;-80
2022/01/12 07:25:18;;;;;;;46.50;24.10;;;;;;;-3.23;82.99;102561.30;84555;1330;22843;-80
2022/01/12 07:27:30;;;;;;;51.00;24.40;;;;;;;-3.20;82.83;102557.34;84552;1332;25455;-70
2022/01/12 07:29:39;;;;;;;47.80;22.60;;;;;;;-3.18;82.80;102565.00;84554;1333;22622;-72
2022/01/12 07:31:50;;;;;;;52.50;27.20;;;;;;;-3.17;82.53;102570.19;84507;1331;22613;-70
2022/01/12 07:33:59;;;;;;;50.10;25.10;;;;;;;-3.17;82.47;102569.33;84553;1329;22607;-70
2022/01/12 07:36:09;;;;;;;46.90;22.10;;;;;;;-3.14;82.44;102566.23;84526;1333;22863;-78
2022/01/12 07:38:21;;;;;;;40.50;19.00;;;;;;;-3.11;82.36;102566.02;84551;1332;23796;-78
2022/01/12 07:40:30;;;;;;;41.50;20.10;;;;;;;-3.05;82.19;102564.30;84503;1331;25514;-79
2022/01/12 07:42:40;;;;;;;38.40;19.50;;;;;;;-2.98;82.05;102555.10;84549;1331;22643;-77
2022/01/12 07:44:48;;;;;;;34.00;19.80;;;;;;;-2.91;82.01;102550.54;84542;1330;22878;-79
2022/01/12 07:46:57;;;;;;;36.90;19.20;;;;;;;-2.82;82.06;102555.57;84557;1333;22620;-78
2022/01/12 07:49:06;;;;;;;34.10;19.50;;;;;;;-2.76;81.84;102556.25;84562;1330;22676;-82
2022/01/12 07:51:15;;;;;;;33.20;16.70;;;;;;;-2.72;81.64;102559.54;84499;1331;23864;-81
2022/01/12 07:53:24;;;;;;;38.70;18.50;;;;;;;-2.70;81.23;102555.90;84550;1331;22740;-81
2022/01/12 07:55:33;;;;;;;36.30;17.30;;;;;;;-2.66;81.19;102550.24;84554;1330;22614;-71
2022/01/12 07:57:43;;;;;;;35.50;19.60;;;;;;;-2.60;81.19;102549.88;84563;1330;22864;-70
2022/01/12 07:59:51;;;;;;;;;;;;;;;-2.54;81.03;102548.67;84566;1330;22833;-70
2022/01/12 08:02:03;;;;;;;29.00;15.60;;;;;;;-2.51;81.00;102549.50;84544;1330;22892;-70
2022/01/12 08:04:12;;;;;;;31.60;16.50;;;;;;;-2.47;80.91;102553.64;84553;1330;22604;-70
2022/01/12 08:06:22;;;;;;;28.10;16.10;;;;;;;-2.44;80.62;102555.65;84537;1330;22732;-78
2022/01/12 08:08:33;;;;;;;30.00;16.30;;;;;;;-2.42;80.34;102545.99;84502;1333;24971;-79
2022/01/12 08:10:42;;;;;;;32.70;16.40;;;;;;;-2.42;80.07;102546.55;84551;1329;24134;-78
2022/01/12 08:12:51;;;;;;;21.60;13.80;;;;;;;-2.41;80.35;102548.64;84557;1333;23897;-82
2022/01/12 08:15:00;;;;;;;25.20;14.10;;;;;;;-2.38;79.93;102551.66;84563;1333;22670;-81
2022/01/12 08:17:12;;;;;;;24.50;13.60;;;;;;;-2.35;79.95;102545.84;84552;1327;22634;-82
2022/01/12 08:19:22;;;;;;;23.40;13.80;;;;;;;-2.31;79.93;102549.45;84568;1331;23955;-81
2022/01/12 08:21:32;;;;;;;24.80;12.30;;;;;;;-2.27;79.71;102546.42;84545;1331;22595;-81
2022/01/12 08:23:42;;;;;;;28.80;13.20;;;;;;;-2.22;79.43;102545.78;84556;1327;22941;-82
2022/01/12 08:25:51;;;;;;;22.70;12.50;;;;;;;-2.19;79.53;102547.32;83858;1330;1002801;-71
2022/01/12 08:28:02;;;;;;;22.40;12.40;;;;;;;-2.17;79.29;102546.42;84577;1329;25621;-82
2022/01/12 08:30:17;;;;;;;20.60;12.30;;;;;;;-2.16;78.94;102540.29;84558;1329;24177;-81
2022/01/12 08:32:27;;;;;;;21.00;12.20;;;;;;;-2.16;78.92;102537.40;84561;1333;24345;-71
2022/01/12 08:34:36;;;;;;;18.40;11.50;;;;;;;-2.12;78.85;102534.52;84556;1330;25509;-71
2022/01/12 08:36:45;;;;;;;18.80;10.80;;;;;;;-2.03;79.06;102536.79;84564;1333;22613;-81
2022/01/12 08:38:55;;;;;;;16.20;10.80;;;;;;;-1.95;78.93;102535.98;84578;1330;22588;-82
2022/01/12 08:41:03;;;;;;;;;;;;;;;-1.85;78.89;102530.48;84568;1330;22573;-82
2022/01/12 08:43:15;;;;;;;15.40;10.20;;;;;;;-1.75;78.70;102528.53;84576;1330;22641;-83
2022/01/12 08:45:27;;;;;;;18.90;9.90;;;;;;;-1.62;79.20;102536.55;84507;1332;24215;-80
2022/01/12 08:47:36;;;;;;;16.80;10.50;;;;;;;-1.48;78.75;102538.51;84563;1330;23807;-80
2022/01/12 08:49:46;;;;;;;16.70;10.10;;;;;;;-1.42;78.48;102542.06;84553;1330;24000;-79
2022/01/12 08:51:54;;;;;;;14.50;8.90;;;;;;;-1.41;77.96;102545.71;84560;1330;22564;-71
2022/01/12 08:54:04;;;;;;;14.40;9.40;;;;;;;-1.41;78.09;102540.08;84548;1331;22594;-71
2022/01/12 08:56:13;;;;;;;16.20;9.70;;;;;;;-1.38;77.90;102539.18;84559;1330;23761;-71
2022/01/12 08:58:22;;;;;;;16.10;9.40;;;;;;;-1.35;77.78;102533.65;84539;1330;22604;-71
2022/01/12 09:00:31;;;;;;;14.30;9.10;;;;;;;-1.32;77.42;102531.76;84556;1330;24074;-71
2022/01/12 09:02:41;;;;;;;13.90;8.70;;;;;;;-1.24;77.34;102533.80;84569;1333;22604;-71
2022/01/12 09:04:50;;;;;;;15.10;9.50;;;;;;;-1.14;77.39;102537.83;84561;1328;22605;-70
2022/01/12 09:06:59;;;;;;;14.80;9.00;;;;;;;-1.05;77.51;102529.70;84539;1331;22623;-81
2022/01/12 09:09:08;;;;;;;13.50;8.10;;;;;;;-0.92;76.53;102527.48;84570;1329;22700;-81
2022/01/12 09:11:18;;;;;;;9.80;7.40;;;;;;;-0.84;76.30;102524.28;84554;1326;22825;-80
2022/01/12 09:13:27;;;;;;;12.10;7.70;;;;;;;-0.74;75.38;102520.20;84573;1330;23917;-82
2022/01/12 09:15:37;;;;;;;17.20;10.00;;;;;;;-0.68;75.59;102521.00;84565;1332;25462;-82
2022/01/12 09:17:47;;;;;;;14.20;8.90;;;;;;;-0.60;75.55;102513.27;84535;1328;24102;-72
2022/01/12 09:19:54;;;;;;;;;;;;;;;-0.50;75.66;102508.54;84567;1330;22592;-71
2022/01/12 09:22:03;;;;;;;11.00;8.10;;;;;;;-0.45;75.47;102512.33;84553;1330;22636;-70
2022/01/12 09:24:13;;;;;;;12.00;7.60;;;;;;;-0.42;74.60;102512.48;84568;1331;22587;-72
2022/01/12 09:26:22;;;;;;;12.90;7.50;;;;;;;-0.37;74.61;102514.23;84594;1329;22725;-71
2022/01/12 09:28:31;;;;;;;13.30;8.50;;;;;;;-0.33;74.46;102513.20;84547;1329;25347;-70
2022/01/12 09:30:43;;;;;;;12.40;7.60;;;;;;;-0.29;74.34;102510.77;84564;1330;22846;-72
2022/01/12 09:32:52;;;;;;;14.80;7.40;;;;;;;-0.25;73.91;102504.45;84596;1330;22744;-79
2022/01/12 09:35:01;;;;;;;11.00;7.20;;;;;;;-0.24;73.56;102503.13;83840;1328;1003559;-75
2022/01/12 09:37:10;;;;;;;11.10;7.90;;;;;;;-0.24;73.75;102501.55;84598;1329;22617;-71
2022/01/12 09:39:19;;;;;;;15.70;7.90;;;;;;;-0.23;73.16;102494.23;84560;1330;24320;-84
2022/01/12 09:41:29;;;;;;;14.50;8.60;;;;;;;-0.24;73.02;102493.85;84581;1332;22608;-82
2022/01/12 09:43:42;;;;;;;13.60;8.50;;;;;;;-0.25;73.00;102499.13;84556;1333;24358;-80
2022/01/12 09:45:52;;;;;;;12.70;8.40;;;;;;;-0.28;72.72;102497.28;84558;1329;23232;-82
2022/01/12 09:48:02;;;;;;;16.80;9.50;;;;;;;-0.30;72.65;102497.38;84618;1331;22559;-81
2022/01/12 09:50:17;;;;;;;15.40;9.70;;;;;;;-0.32;72.62;102501.41;84576;1330;22617;-71
2022/01/12 09:52:29;;;;;;;17.50;9.40;;;;;;;-0.37;71.99;102509.95;83871;1330;1003250;-80
2022/01/12 09:54:40;;;;;;;19.50;11.60;;;;;;;-0.41;72.16;102510.98;84561;1333;22623;-81
2022/01/12 09:56:52;;;;;;;22.20;12.50;;;;;;;-0.43;71.80;102507.99;84557;1330;25321;-83
2022/01/12 09:59:02;;;;;;;24.10;13.20;;;;;;;-0.44;72.25;102508.45;84550;1331;22629;-83
2022/01/12 10:01:12;;;;;;;20.70;12.40;;;;;;;-0.46;71.91;102510.59;84546;1332;24275;-72
2022/01/12 10:03:23;;;;;;;23.00;13.60;;;;;;;-0.49;71.99;102506.55;83870;1328;1015998;-82
2022/01/12 10:05:36;;;;;;;25.30;12.40;;;;;;;-0.48;71.68;102501.92;83844;1328;1003741;-82
2022/01/12 10:07:45;;;;;;;28.00;13.50;;;;;;;-0.49;71.81;102497.63;84553;1333;24100;-73
2022/01/12 10:09:56;;;;;;;28.40;14.60;;;;;;;-0.48;71.91;102497.98;84562;1331;22909;-73
2022/01/12 10:12:11;;;;;;;23.40;14.20;;;;;;;-0.49;71.76;102495.23;84584;1331;22911;-72
2022/01/12 10:14:21;;;;;;;31.30;15.00;;;;;;;-0.49;71.54;102497.09;84571;1332;22606;-71
2022/01/12 10:16:30;;;;;;;19.90;10.60;;;;;;;-0.50;71.21;102491.90;84571;1331;22596;-73
2022/01/12 10:18:50;;;;;;;30.20;15.10;;;;;;;-0.53;71.46;102483.94;84558;1327;22671;-74
2022/01/12 10:20:59;;;;;;;32.30;14.90;;;;;;;-0.52;71.31;102480.20;84559;1333;23921;-73
2022/01/12 10:23:11;;;;;;;27.60;15.60;;;;;;;-0.52;71.37;102473.84;84566;1330;23997;-78
2022/01/12 10:25:22;;;;;;;29.60;14.80;;;;;;;-0.50;71.68;102472.70;83869;1331;1003294;-79
2022/01/12 10:27:31;;;;;;;33.50;15.30;;;;;;;-0.50;71.28;102469.95;84552;1331;22625;-73
2022/01/12 10:29:40;;;;;;;27.70;15.00;;;;;;;-0.49;71.23;102481.15;83830;1332;1002455;-73
2022/01/12 10:31:56;;;;;;;31.20;16.80;;;;;;;-0.47;71.35;102481.42;84570;1331;25446;-80
2022/01/12 10:34:07;;;;;;;27.80;15.00;;;;;;;-0.45;71.46;102483.02;83878;1327;1003475;-79
2022/01/12 10:36:16;;;;;;;30.20;15.60;;;;;;;-0.44;70.91;102480.70;84553;1331;22603;-75
2022/01/12 10:38:25;;;;;;;32.50;15.70;;;;;;;-0.43;70.93;102480.20;84575;1330;24220;-76
2022/01/12 10:40:44;;;;;;;29.60;17.00;;;;;;;-0.42;70.61;102474.94;84586;1333;23967;-78
2022/01/12 10:42:56;;;;;;;32.80;17.30;;;;;;;-0.41;70.85;102472.92;84541;1332;22657;-74
2022/01/12 10:45:06;;;;;;;35.30;16.50;;;;;;;-0.39;70.97;102476.42;84573;1330;22618;-74
2022/01/12 10:47:20;;;;;;;37.70;19.00;;;;;;;-0.38;70.95;102479.73;83863;1331;1003209;-74
2022/01/12 10:49:30;;;;;;;37.60;17.90;;;;;;;-0.35;70.87;102483.64;84565;1332;24016;-77
2022/01/12 10:51:39;;;;;;;36.00;18.90;;;;;;;-0.31;70.87;102486.35;83878;1333;1003029;-77
2022/01/12 10:53:52;;;;;;;36.30;18.30;;;;;;;-0.28;70.65;102484.26;84565;1327;22687;-78
2022/01/12 10:56:10;;;;;;;37.20;18.60;;;;;;;-0.24;70.70;102486.30;84579;1333;22651;-80
2022/01/12 10:58:24;;;;;;;35.70;18.00;;;;;;;-0.20;70.36;102482.16;84547;1333;22591;-70
2022/01/12 11:00:37;;;;;;;34.70;18.70;;;;;;;-0.17;70.61;102478.50;83861;1329;1003401;-71
2022/01/12 11:02:46;;;;;;;35.60;18.90;;;;;;;-0.13;70.54;102479.36;84270;1331;425386;-78
2022/01/12 11:04:55;;;;;;;38.20;20.50;;;;;;;-0.09;70.72;102477.47;84559;1330;24226;-80
2022/01/12 11:07:05;;;;;;;41.60;20.20;;;;;;;-0.04;70.45;102476.98;84569;1334;22729;-79
2022/01/12 11:09:14;;;;;;;34.70;18.60;;;;;;;0.00;70.62;102484.52;84549;1330;22582;-80
2022/01/12 11:11:25;;;;;;;36.90;18.60;;;;;;;0.02;70.26;102485.25;84586;1331;22737;-70
2022/01/12 11:13:34;;;;;;;36.00;18.90;;;;;;;0.05;70.22;102482.98;84568;1331;24280;-70
2022/01/12 11:15:46;;;;;;;37.10;20.30;;;;;;;0.10;69.77;102482.65;84554;1331;23978;-71
2022/01/12 11:17:55;;;;;;;37.50;18.90;;;;;;;0.14;70.03;102471.30;84554;1332;23996;-80
2022/01/12 11:20:12;;;;;;;44.90;20.60;;;;;;;0.18;69.93;102465.95;84516;1333;22626;-79
2022/01/12 11:22:30;;;;;;;39.50;21.20;;;;;;;0.18;69.57;102463.38;84610;1331;22677;-79
2022/01/12 11:24:42;;;;;;;34.20;19.00;;;;;;;0.16;69.39;102460.40;84563;1331;22757;-79
2022/01/12 11:26:55;;;;;;;36.50;20.30;;;;;;;0.09;68.62;102453.78;84545;1333;23803;-70
2022/01/12 11:29:05;;;;;;;40.60;20.40;;;;;;;0.02;68.77;102455.58;84546;1330;22597;-70
2022/01/12 11:31:22;;;;;;;39.90;19.30;;;;;;;-0.03;68.66;102456.07;84599;1324;22896;-78